Main page
METAR-TAF:

METAR-TAF

Airports :

Genoa Cristoforo Colombo Airport

Genoa, Italy

latitude: 44-25N, longitude: 008-51E, elevation: 2 m

Current weather observation

The report was made 22 minutes ago, at 18:20 UTC
Wind 8 kt from the Northeast, varying between North and East/Northeast
Temperature 16°C
Humidity 68%
Pressure 1025 hPa
Visibility 10 km or more
no clouds below 1500 m and no cumulonimbus

METAR: LIMJ 141820Z 04008KT 010V070 CAVOK 16/10 Q1025

Time: 19:42 (18:42 UTC)

Forecast

The report was made 1 hour and 42 minutes ago, at 17:00 UTC
Forecast valid from 14 at 18 UTC to 15 at 18 UTC
Wind 10 kt from the Northeast
Visibility 10 km or more
no clouds below 1500 m and no cumulonimbus

TAF: LIMJ 141700Z 1418/1518 04010KT CAVOK

Weather observations and forecasts of more than 4000 airports (METAR and TAF reports).

The available stations are represented by yellow and red dots on the map.

Hover mouse over dot to see the name of the station.

Then click to see weather observations and forecasts.

To change the map : click on the green buttons with a black cross to zoom in, on the green button with a dash to zoom out, or on the green arrows for adjacent maps.


METAR-TAF: